Rachel Carson — WDE6481 — position and weather

sailwx.info

Track history (hours):
 
Tides and Currents Weather Stations Pressure Air Temp Water Temp Dewpoint Dewpoint Depression Visibility Wind Speed Wind Dir Waves Ship Positions

Oceanographic research ship Rachel Carson (USA)

Owner: University of Maryland Center for Environmental Science Research Fleet Operations, Solomons, MD. More information available from US FCC via Universal Licensing System and Coast Guard Vessel Documentation Center.

Last reported at 2017-Jun-16 16:09 UTC. Time now 2017-Jun-23 05:19 UTC.
Position N 38°20' W 075°06'.

Length 24 m; draft 1.5 m.

Type: Other ship. MMSI: 367380790.

Date/timePositionNaut miles runAvg speedWind from/ knotsBaromVisibWave heightAir tempDewpointWater temp
2017-Jun-16 16:09N 38°20' W 075°06'1 7.1
2017-Jun-16 16:00N 38°19' W 075°05'612.4
2017-Jun-16 15:30N 38°18' W 074°57'3 4.6
2017-Jun-16 14:55N 38°18' W 074°54'6 4.8
2017-Jun-16 13:42N 38°22' W 074°48'0 1.5
2017-Jun-16 13:30N 38°23' W 074°48'4 0.2
2017-Jun-15 18:54N 38°27' W 074°48'4 6.1
2017-Jun-15 18:09N 38°24' W 074°43'0 0.0
2017-Jun-15 17:51N 38°24' W 074°43'2 4.1
2017-Jun-15 17:29N 38°23' W 074°43'3 3.1
2017-Jun-15 16:38N 38°20' W 074°43'1 5.7
2017-Jun-15 16:24N 38°21' W 074°45'0 0.1
2017-Jun-15 16:00N 38°21' W 074°45'12 6.0
2017-Jun-15 14:04N 38°18' W 074°30'4 1.9
2017-Jun-15 12:06N 38°22' W 074°32'319.7
2017-Jun-15 11:55N 38°22' W 074°37'1312.7
2017-Jun-15 10:53N 38°22' W 074°53'12 0.3
2017-Jun-13 13:47N 38°18' W 074°38'617.9
2017-Jun-13 13:26N 38°18' W 074°30'15 6.3
2017-Jun-13 11:07N 38°20' W 074°49'318.9
2017-Jun-13 10:58N 38°20' W 074°52'919.0
2017-Jun-13 10:30N 38°19' W 075°04'58 2.5
2017-Jun-12 11:12N 38°06' W 076°15'419.3
2017-Jun-12 11:00N 38°09' W 076°16'919.1
2017-Jun-12 10:31N 38°18' W 076°21'  
Track history (hours):
 
Tides and Currents Weather Stations Pressure Air Temp Water Temp Dewpoint Dewpoint Depression Visibility Wind Speed Wind Dir Waves Ship Positions

Oceanographic research ship Rachel Carson (USA)

Owner: University of Maryland Center for Environmental Science Research Fleet Operations, Solomons, MD. More information available from US FCC via Universal Licensing System and Coast Guard Vessel Documentation Center.

Last reported at 2017-Jun-16 16:09 UTC. Time now 2017-Jun-23 05:19 UTC.
Position N 38°20' W 075°06'.

Length 24 m; draft 1.5 m.

Type: Other ship. MMSI: 367380790.

Date/timePositionNaut miles runAvg speedWind from/ knotsBaromVisibWave heightAir tempDewpointWater temp
2017-Jun-16 16:09N 38°20' W 075°06'1 7.1
2017-Jun-16 16:00N 38°19' W 075°05'612.4
2017-Jun-16 15:30N 38°18' W 074°57'3 4.6
2017-Jun-16 14:55N 38°18' W 074°54'6 4.8
2017-Jun-16 13:42N 38°22' W 074°48'0 1.5
2017-Jun-16 13:30N 38°23' W 074°48'4 0.2
2017-Jun-15 18:54N 38°27' W 074°48'4 6.1
2017-Jun-15 18:09N 38°24' W 074°43'0 0.0
2017-Jun-15 17:51N 38°24' W 074°43'2 4.1
2017-Jun-15 17:29N 38°23' W 074°43'3 3.1
2017-Jun-15 16:38N 38°20' W 074°43'1 5.7
2017-Jun-15 16:24N 38°21' W 074°45'0 0.1
2017-Jun-15 16:00N 38°21' W 074°45'12 6.0
2017-Jun-15 14:04N 38°18' W 074°30'4 1.9
2017-Jun-15 12:06N 38°22' W 074°32'319.7
2017-Jun-15 11:55N 38°22' W 074°37'1312.7
2017-Jun-15 10:53N 38°22' W 074°53'12 0.3
2017-Jun-13 13:47N 38°18' W 074°38'617.9
2017-Jun-13 13:26N 38°18' W 074°30'15 6.3
2017-Jun-13 11:07N 38°20' W 074°49'318.9
2017-Jun-13 10:58N 38°20' W 074°52'919.0
2017-Jun-13 10:30N 38°19' W 075°04'58 2.5
2017-Jun-12 11:12N 38°06' W 076°15'419.3
2017-Jun-12 11:00N 38°09' W 076°16'919.1
2017-Jun-12 10:31N 38°18' W 076°21'  

Dump ship's entire track history